Time;durP1;ratioP1;P1;durP2;ratioP2;P2;SDS_P1;SDS_P2;PMS_P1;PMS_P2;Temp;Humidity;BMP_temperature;BMP_pressure;BME280_temperature;BME280_humidity;BME280_pressure;Samples;Min_cycle;Max_cycle;Signal;HPM_P1;HPM_P2
2021/12/24 00:00:46;;;;;;;;;38.75;34.75;;;;;10.21;71.42;100898.97;5052497;28;49799;-68
2021/12/24 00:03:12;;;;;;;;;34.25;33.00;;;;;10.19;72.02;100895.44;5051554;28;49742;-67
2021/12/24 00:05:38;;;;;;;;;39.75;36.75;;;;;10.17;71.92;100886.63;5052762;28;49787;-67
2021/12/24 00:08:04;;;;;;;;;37.25;33.00;;;;;10.05;72.02;100867.97;5052466;28;50661;-65
2021/12/24 00:10:31;;;;;;;;;34.00;30.75;;;;;10.23;71.57;100902.56;5052501;28;49790;-67
2021/12/24 00:13:03;;;;;;;;;35.75;33.50;;;;;10.21;71.32;100893.72;5052462;28;49713;-66
2021/12/24 00:15:53;;;;;;;;;42.50;35.25;;;;;10.24;71.78;100888.59;5052868;28;50035;-66
2021/12/24 00:18:45;;;;;;;;;34.50;34.25;;;;;10.01;71.64;100868.75;5045447;28;49654;-67
2021/12/24 00:37:23;;;;;;;;;35.00;33.75;;;;;10.27;72.39;100874.66;5052239;28;49856;-74
2021/12/24 00:40:00;;;;;;;;;35.00;30.75;;;;;10.26;72.53;100871.16;5050328;28;49973;-70
2021/12/24 00:42:25;;;;;;;;;36.25;29.25;;;;;10.26;72.87;100860.66;5051907;28;49850;-66
2021/12/24 00:44:50;;;;;;;;;37.50;33.00;;;;;10.31;72.66;100858.13;5052165;28;49846;-66
2021/12/24 00:47:16;;;;;;;;;35.25;31.75;;;;;10.30;71.90;100848.47;5052071;28;49565;-66
2021/12/24 00:49:42;;;;;;;;;35.50;30.00;;;;;10.31;71.81;100852.88;5051810;28;50032;-66
2021/12/24 00:52:57;;;;;;;;;31.75;28.75;;;;;10.24;72.43;100848.38;5051832;28;50089;-67
2021/12/24 00:55:05;;;;;;;;;32.75;32.75;;;;;10.31;72.03;100858.13;5047554;28;49980;-65
2021/12/24 00:57:31;;;;;;;;;31.50;30.00;;;;;10.29;72.33;100842.34;5049659;28;49855;-66
2021/12/24 00:59:57;;;;;;;;;38.50;33.50;;;;;10.36;72.12;100847.75;5049806;28;50513;-68
2021/12/24 01:02:23;;;;;;;;;35.25;29.25;;;;;10.28;72.25;100829.19;5049651;28;49823;-65
2021/12/24 01:04:48;;;;;;;;;32.75;28.50;;;;;10.35;72.80;100833.75;5048693;28;49894;-73
2021/12/24 01:07:14;;;;;;;;;26.50;26.00;;;;;10.37;71.81;100821.53;5050055;28;49894;-69
2021/12/24 01:09:39;;;;;;;;;29.75;29.75;;;;;10.23;72.52;100792.38;5050078;28;50270;-68
2021/12/24 01:12:05;;;;;;;;;36.75;30.75;;;;;10.38;72.31;100818.06;5049300;28;49715;-68
2021/12/24 01:14:31;;;;;;;;;31.25;31.25;;;;;10.37;72.50;100818.91;5051528;28;49933;-65
2021/12/24 01:19:32;;;;;;;;;28.25;28.25;;;;;10.39;72.43;100803.19;5051766;28;49889;-66
2021/12/24 01:22:38;;;;;;;;;33.50;30.75;;;;;10.40;72.41;100799.72;5051906;28;49972;-65
2021/12/24 01:25:01;;;;;;;;;32.50;30.75;;;;;10.38;72.78;100798.81;5051365;28;49672;-72
2021/12/24 01:38:08;;;;;;;;;38.00;35.50;;;;;10.50;72.36;100806.94;5051332;28;49772;-68
2021/12/24 01:43:06;;;;;;;;;32.50;28.50;;;;;10.52;71.87;100802.63;5050806;28;49646;-68
2021/12/24 01:45:35;;;;;;;;;31.25;31.25;;;;;10.53;72.35;100813.16;5051078;28;49661;-69
2021/12/24 01:48:07;;;;;;;;;40.50;35.50;;;;;10.38;72.48;100793.56;5051364;28;49900;-67
2021/12/24 01:50:35;;;;;;;;;30.25;27.00;;;;;10.57;71.72;100814.09;5050679;28;50460;-70
2021/12/24 01:53:04;;;;;;;;;29.00;28.00;;;;;10.57;72.16;100815.00;5050642;28;49885;-66
2021/12/24 01:55:30;;;;;;;;;35.00;28.50;;;;;10.50;72.23;100799.06;5051279;28;49791;-65
2021/12/24 01:57:56;;;;;;;;;31.25;29.50;;;;;10.55;72.28;100815.81;5050978;28;49700;-67
2021/12/24 02:00:28;;;;;;;;;27.50;27.50;;;;;10.55;72.01;100808.81;5050908;28;50586;-66
2021/12/24 02:02:53;;;;;;;;;28.75;26.25;;;;;10.59;72.41;100802.78;5050696;28;49787;-71
2021/12/24 02:05:19;;;;;;;;;36.75;29.75;;;;;10.62;71.77;100808.97;5050637;28;49706;-66
2021/12/24 02:07:46;;;;;;;;;26.50;25.00;;;;;10.63;72.53;100797.63;5050697;28;49593;-68
2021/12/24 02:10:14;;;;;;;;;27.75;27.75;;;;;10.65;72.08;100807.28;5050224;28;49631;-70
2021/12/24 02:12:40;;;;;;;;;32.75;28.75;;;;;10.65;72.23;100806.41;5050374;28;49649;-65
2021/12/24 02:15:11;;;;;;;;;31.75;28.75;;;;;10.64;72.35;100797.63;5050166;28;49625;-73
2021/12/24 02:28:39;;;;;;;;;25.75;24.25;;;;;10.60;71.78;100774.78;5050348;28;49689;-73
2021/12/24 02:31:14;;;;;;;;;30.50;28.50;;;;;10.66;72.18;100776.66;5050342;28;49845;-67
2021/12/24 02:33:40;;;;;;;;;31.25;30.75;;;;;10.63;71.80;100787.13;5050163;28;49789;-76
2021/12/24 02:36:06;;;;;;;;;29.00;27.75;;;;;10.56;71.73;100780.84;5050364;28;49750;-66
2021/12/24 02:38:32;;;;;;;;;34.25;30.75;;;;;10.64;71.62;100794.13;5050439;28;49618;-76
2021/12/24 02:40:59;;;;;;;;;28.75;27.75;;;;;10.62;72.10;100783.59;5049891;28;51327;-69
2021/12/24 02:43:25;;;;;;;;;26.75;23.25;;;;;10.46;72.57;100761.38;5048802;28;49795;-67
2021/12/24 02:45:56;;;;;;;;;30.25;27.00;;;;;10.65;72.44;100781.03;5050249;28;50114;-70
2021/12/24 02:53:57;;;;;;;;;37.00;30.50;;;;;10.58;72.15;100752.88;5042222;28;50113;-66
2021/12/24 02:56:25;;;;;;;;;25.75;23.50;;;;;10.46;71.95;100726.38;5050083;28;49701;-65
2021/12/24 02:58:51;;;;;;;;;31.50;29.00;;;;;10.67;72.20;100763.56;5050355;28;49768;-66
2021/12/24 03:01:21;;;;;;;;;32.75;28.75;;;;;10.69;72.48;100767.09;5049963;28;49862;-70
2021/12/24 03:03:48;;;;;;;;;30.00;28.75;;;;;10.69;72.05;100771.47;5050221;28;49998;-68
2021/12/24 03:06:33;;;;;;;;;33.75;29.50;;;;;10.68;72.17;100769.69;5049991;28;49888;-67
2021/12/24 03:09:00;;;;;;;;;30.25;26.00;;;;;10.60;72.17;100766.91;5050238;28;49734;-69
2021/12/24 03:11:25;;;;;;;;;33.00;30.25;;;;;10.72;71.95;100771.56;5049657;28;50232;-66
2021/12/24 03:13:52;;;;;;;;;31.25;27.50;;;;;10.65;72.15;100764.41;5050191;28;49870;-70
2021/12/24 03:16:18;;;;;;;;;34.00;30.25;;;;;10.76;72.09;100765.50;5049877;28;50009;-74
2021/12/24 03:18:45;;;;;;;;;31.75;24.50;;;;;10.70;72.23;100753.13;5050055;28;49594;-75
2021/12/24 03:21:26;;;;;;;;;27.75;26.75;;;;;10.66;72.06;100740.78;5048307;28;51567;-67
2021/12/24 03:26:26;;;;;;;;;33.50;30.00;;;;;10.69;72.30;100742.59;5049649;28;49701;-66
2021/12/24 03:28:51;;;;;;;;;31.25;29.25;;;;;10.76;72.05;100750.63;5052176;28;49797;-72
2021/12/24 03:31:16;;;;;;;;;27.50;27.00;;;;;10.76;71.99;100744.50;5052807;28;55790;-69
2021/12/24 03:33:42;;;;;;;;;27.75;24.50;;;;;10.61;71.93;100718.81;5051742;28;50080;-73
2021/12/24 03:36:08;;;;;;;;;27.25;26.00;;;;;10.76;71.76;100744.50;5053207;28;49765;-70
2021/12/24 03:38:35;;;;;;;;;34.00;28.75;;;;;10.67;71.69;100728.56;5053239;28;49717;-73
2021/12/24 03:41:00;;;;;;;;;35.75;30.00;;;;;10.76;72.00;100748.00;5039555;28;50739;-70
2021/12/24 03:43:26;;;;;;;;;28.50;25.25;;;;;10.69;72.06;100738.22;5052821;28;49644;-65
2021/12/24 03:48:22;;;;;;;;;26.75;23.25;;;;;10.73;71.92;100726.94;5053218;28;49637;-68
2021/12/24 03:56:28;;;;;;;;;31.00;29.75;;;;;10.53;71.70;100666.19;5052580;28;49595;-72
2021/12/24 03:58:53;;;;;;;;;32.75;30.25;;;;;10.64;71.45;100692.63;5052997;28;49815;-71
2021/12/24 04:01:19;;;;;;;;;33.50;30.00;;;;;10.74;71.74;100717.31;5052514;28;50737;-73
2021/12/24 04:03:44;;;;;;;;;30.00;28.25;;;;;10.74;71.83;100714.69;5052656;28;49515;-72
2021/12/24 04:06:10;;;;;;;;;25.75;25.75;;;;;10.65;71.97;100693.50;5053005;28;49924;-72
2021/12/24 04:08:35;;;;;;;;;26.75;25.75;;;;;10.69;71.78;100685.72;5052628;28;49924;-69
2021/12/24 04:11:02;;;;;;;;;27.50;25.00;;;;;10.66;72.11;100688.28;5052320;28;50590;-73
2021/12/24 04:13:27;;;;;;;;;27.50;22.25;;;;;10.77;72.20;100697.25;5052437;28;49701;-66
2021/12/24 04:15:53;;;;;;;;;26.50;25.75;;;;;10.78;72.13;100688.50;5052505;28;49757;-66
2021/12/24 04:26:43;;;;;;;;;31.00;30.50;;;;;10.74;72.32;100686.69;5052082;28;49643;-67
2021/12/24 04:29:09;;;;;;;;;25.00;23.25;;;;;10.74;72.16;100676.19;5052519;28;49984;-66
2021/12/24 04:32:20;;;;;;;;;38.50;31.50;;;;;10.67;71.96;100645.41;5052054;28;50704;-66
2021/12/24 04:34:27;;;;;;;;;28.25;24.50;;;;;10.62;71.39;100633.09;5048643;28;49663;-69
2021/12/24 04:37:36;;;;;;;;;28.75;27.00;;;;;10.79;71.87;100656.13;5052227;28;49786;-73
2021/12/24 04:39:54;;;;;;;;;34.50;25.50;;;;;10.74;71.75;100654.31;5051890;28;49920;-65
2021/12/24 05:03:53;;;;;;;;;29.00;25.25;;;;;10.66;71.48;100620.03;5051436;28;51494;-65
2021/12/24 05:08:53;;;;;;;;;33.25;24.50;;;;;10.81;71.56;100649.19;5051680;28;49753;-66
2021/12/24 05:11:20;;;;;;;;;25.50;24.00;;;;;10.79;71.59;100644.75;5051412;28;49616;-66
2021/12/24 05:13:45;;;;;;;;;29.75;26.25;;;;;10.65;72.07;100626.13;5051394;28;50540;-66
2021/12/24 05:19:03;;;;;;;;;31.00;28.50;;;;;10.85;71.63;100647.50;5051651;28;49904;-66
2021/12/24 05:21:36;;;;;;;;;30.00;27.00;;;;;10.86;71.74;100649.25;5051594;28;49829;-69
2021/12/24 05:24:12;;;;;;;;;26.25;24.00;;;;;10.66;71.86;100622.66;5051074;28;49675;-69
2021/12/24 05:26:39;;;;;;;;;26.50;26.50;;;;;10.69;71.96;100622.69;5050863;28;49762;-69
2021/12/24 05:29:05;;;;;;;;;21.25;20.50;;;;;10.84;71.99;100637.84;5051179;28;49877;-66
2021/12/24 05:31:31;;;;;;;;;28.75;26.25;;;;;10.83;72.04;100636.09;5051671;28;50000;-69
2021/12/24 05:33:57;;;;;;;;;29.75;27.50;;;;;10.84;71.69;100638.75;5051404;28;50572;-66
2021/12/24 05:36:23;;;;;;;;;28.25;24.00;;;;;10.72;72.04;100617.53;5051406;28;49874;-72
2021/12/24 05:38:48;;;;;;;;;28.75;24.50;;;;;10.89;71.77;100642.31;5051632;28;49787;-68
2021/12/24 05:41:15;;;;;;;;;33.00;27.50;;;;;10.77;71.86;100618.47;5051215;28;49649;-75
2021/12/24 05:43:40;;;;;;;;;29.00;25.00;;;;;10.74;72.33;100626.31;5051163;28;49724;-72
2021/12/24 05:46:06;;;;;;;;;33.25;30.25;;;;;10.89;72.05;100633.56;5051331;28;49889;-76
2021/12/24 05:48:32;;;;;;;;;30.75;25.50;;;;;10.89;71.87;100636.19;5051493;28;49764;-70
2021/12/24 05:50:57;;;;;;;;;23.25;21.75;;;;;10.88;72.42;100642.28;5050568;28;49972;-66
2021/12/24 05:53:24;;;;;;;;;21.50;20.75;;;;;10.88;72.40;100640.56;5050745;28;50546;-68
2021/12/24 05:55:50;;;;;;;;;26.00;24.50;;;;;10.79;71.99;100629.88;5037732;28;49923;-66
2021/12/24 05:58:15;;;;;;;;;27.25;26.25;;;;;10.87;71.96;100656.28;5051047;28;49885;-68
2021/12/24 06:00:41;;;;;;;;;27.00;27.00;;;;;10.85;72.23;100663.25;5051080;28;50082;-66
2021/12/24 06:03:07;;;;;;;;;25.50;23.25;;;;;10.84;72.19;100654.50;5050504;28;50416;-67
2021/12/24 06:05:37;;;;;;;;;32.25;28.50;;;;;10.85;72.38;100660.63;5050736;28;49739;-68
2021/12/24 06:08:05;;;;;;;;;25.00;22.50;;;;;10.85;72.65;100664.13;5050750;28;49630;-69
2021/12/24 06:10:33;;;;;;;;;24.75;22.00;;;;;10.86;72.39;100665.91;5050684;28;49824;-67
2021/12/24 06:12:59;;;;;;;;;30.75;25.00;;;;;10.78;72.96;100650.88;5050466;28;52069;-67
2021/12/24 06:15:26;;;;;;;;;26.50;23.75;;;;;10.85;73.04;100658.88;5050569;28;49581;-70
2021/12/24 06:17:55;;;;;;;;;22.75;21.50;;;;;10.85;72.94;100661.50;5050585;28;49843;-65
2021/12/24 06:20:22;;;;;;;;;28.50;26.25;;;;;10.83;73.22;100657.97;5050653;28;49724;-69
2021/12/24 06:22:48;;;;;;;;;22.00;20.00;;;;;10.86;73.46;100658.03;5050128;28;51470;-65
2021/12/24 06:25:14;;;;;;;;;18.25;17.25;;;;;10.88;73.74;100651.06;5050437;28;49660;-74
2021/12/24 06:27:40;;;;;;;;;25.50;24.50;;;;;10.78;73.62;100628.13;5050474;28;49857;-67
2021/12/24 06:30:07;;;;;;;;;26.25;25.50;;;;;10.88;73.78;100640.56;5050447;28;49719;-69
2021/12/24 06:32:32;;;;;;;;;25.00;21.50;;;;;10.66;73.79;100609.53;5050234;28;49807;-67
2021/12/24 06:34:58;;;;;;;;;23.75;23.00;;;;;10.88;73.46;100644.91;5050244;28;49963;-67
2021/12/24 06:37:24;;;;;;;;;23.75;21.75;;;;;10.78;73.57;100614.09;5050528;28;49688;-67
2021/12/24 06:39:49;;;;;;;;;23.00;22.50;;;;;10.83;73.87;100621.22;5050556;28;49930;-67
2021/12/24 06:42:15;;;;;;;;;23.25;21.50;;;;;10.93;73.94;100634.50;5049891;28;50474;-64
2021/12/24 06:44:41;;;;;;;;;21.25;19.75;;;;;10.90;74.18;100630.06;5050173;28;49709;-72
2021/12/24 06:47:06;;;;;;;;;23.50;22.75;;;;;10.85;73.81;100634.38;5050492;28;50311;-64
2021/12/24 06:49:32;;;;;;;;;18.50;17.25;;;;;10.84;74.30;100625.59;5050298;28;50093;-69
2021/12/24 06:51:57;;;;;;;;;19.75;18.25;;;;;10.87;74.05;100628.28;5049955;28;49735;-65
2021/12/24 06:54:23;;;;;;;;;25.50;18.75;;;;;10.87;73.90;100625.66;5049980;28;49816;-64
2021/12/24 06:56:48;;;;;;;;;22.50;17.25;;;;;10.88;74.25;100624.78;5049893;28;49730;-63
2021/12/24 06:59:14;;;;;;;;;23.00;21.50;;;;;10.88;73.89;100626.53;5049081;28;50131;-65
2021/12/24 07:01:40;;;;;;;;;24.25;21.75;;;;;10.93;74.12;100624.00;5050367;28;50031;-68
2021/12/24 07:04:05;;;;;;;;;19.50;18.75;;;;;10.91;73.92;100638.88;5053729;28;49672;-66
2021/12/24 07:06:31;;;;;;;;;21.25;19.00;;;;;10.79;74.38;100621.13;5053410;28;49702;-63
2021/12/24 07:08:57;;;;;;;;;18.50;16.00;;;;;10.93;73.75;100631.88;5053840;28;49725;-65
2021/12/24 07:11:24;;;;;;;;;15.50;14.50;;;;;10.92;73.84;100624.88;5053044;28;50925;-65
2021/12/24 07:13:49;;;;;;;;;20.00;19.25;;;;;10.93;73.70;100631.88;5053473;28;49787;-66
2021/12/24 07:16:15;;;;;;;;;17.00;15.25;;;;;10.71;74.16;100601.72;5053515;28;49926;-63
2021/12/24 07:18:40;;;;;;;;;17.25;16.75;;;;;10.93;74.35;100631.88;5053397;28;49805;-63
2021/12/24 07:21:05;;;;;;;;;16.00;16.00;;;;;10.90;74.45;100624.81;5053488;28;49854;-68
2021/12/24 07:23:31;;;;;;;;;18.00;16.75;;;;;10.85;74.45;100611.63;5053071;28;49873;-62
2021/12/24 07:25:56;;;;;;;;;15.25;14.50;;;;;10.89;74.43;100610.78;5053102;28;49859;-63
2021/12/24 07:28:22;;;;;;;;;17.00;15.00;;;;;10.91;74.10;100616.09;5053297;28;49888;-63
2021/12/24 07:30:47;;;;;;;;;11.75;9.75;;;;;10.59;74.30;100573.50;5053065;28;50735;-65
2021/12/24 07:33:14;;;;;;;;;14.25;12.75;;;;;10.85;74.30;100626.50;5052863;28;49559;-73
2021/12/24 07:35:44;;;;;;;;;12.50;12.50;;;;;10.88;74.43;100639.66;5053183;28;49843;-68
2021/12/24 07:38:13;;;;;;;;;14.00;11.25;;;;;10.86;74.65;100623.00;5053394;28;49763;-63
2021/12/24 07:40:42;;;;;;;;;13.00;11.50;;;;;10.92;74.08;100633.63;5052801;28;50498;-63
2021/12/24 07:43:07;;;;;;;;;12.75;12.75;;;;;10.94;74.11;100624.03;5053087;28;49657;-64
2021/12/24 07:45:32;;;;;;;;;12.25;11.50;;;;;10.93;74.36;100624.00;5053019;28;49818;-72
2021/12/24 07:48:12;;;;;;;;;13.25;13.25;;;;;10.87;74.61;100616.91;5053004;28;49574;-72
2021/12/24 07:53:10;;;;;;;;;10.00;9.50;;;;;10.94;74.41;100625.78;5052887;28;49835;-71
2021/12/24 07:55:37;;;;;;;;;11.50;10.00;;;;;10.91;74.52;100610.84;5052490;28;49796;-65
2021/12/24 07:58:03;;;;;;;;;11.50;11.25;;;;;10.74;74.81;100581.66;5052942;28;49857;-63
2021/12/24 08:00:28;;;;;;;;;11.50;11.50;;;;;10.93;74.78;100613.50;5052495;28;50586;-64
2021/12/24 08:02:56;;;;;;;;;14.50;10.25;;;;;10.94;75.14;100616.16;5052660;28;49952;-64
2021/12/24 08:05:24;;;;;;;;;8.50;8.50;;;;;10.95;74.70;100617.91;5052719;28;49723;-64
2021/12/24 08:07:50;;;;;;;;;12.75;12.50;;;;;10.96;75.30;100609.16;5052750;28;49973;-64
2021/12/24 08:10:15;;;;;;;;;12.00;11.00;;;;;10.79;74.69;100581.72;5052229;28;51960;-66
2021/12/24 08:12:41;;;;;;;;;14.00;12.00;;;;;10.99;74.73;100603.06;5052277;28;49937;-64
2021/12/24 08:15:07;;;;;;;;;14.25;12.50;;;;;11.02;74.93;100600.53;5051705;28;49795;-64
2021/12/24 08:17:34;;;;;;;;;12.25;12.25;;;;;11.02;75.12;100605.78;5052587;28;49718;-64
2021/12/24 08:19:59;;;;;;;;;14.50;11.00;;;;;11.04;74.90;100609.31;5052511;28;51689;-63
2021/12/24 08:22:25;;;;;;;;;13.75;11.00;;;;;11.06;74.81;100610.22;5052396;28;49097;-65
2021/12/24 08:24:51;;;;;;;;;12.00;9.75;;;;;11.06;75.19;100605.84;5052419;28;49687;-67
2021/12/24 08:27:16;;;;;;;;;15.00;12.50;;;;;10.91;75.07;100579.34;5052491;28;49923;-63
2021/12/24 08:29:42;;;;;;;;;10.75;9.50;;;;;10.92;75.18;100594.22;5052082;28;50883;-64
2021/12/24 08:32:08;;;;;;;;;12.25;11.50;;;;;11.05;75.15;100608.44;5052427;28;49663;-71
2021/12/24 08:34:34;;;;;;;;;14.75;10.50;;;;;11.06;74.90;100605.84;5052509;28;49676;-68
2021/12/24 08:37:00;;;;;;;;;13.25;12.25;;;;;10.83;75.19;100562.56;5052730;28;49792;-72
2021/12/24 08:39:26;;;;;;;;;11.75;11.75;;;;;11.08;74.66;100603.22;5053100;28;49865;-72
2021/12/24 08:41:54;;;;;;;;;10.25;10.25;;;;;11.16;74.68;100604.25;5053643;28;49891;-68
2021/12/24 08:44:23;;;;;;;;;15.25;14.50;;;;;10.95;74.94;100567.13;5043995;28;49848;-71
2021/12/24 08:46:48;;;;;;;;;13.00;11.50;;;;;11.15;74.71;100598.09;5044331;28;49702;-62
2021/12/24 08:49:14;;;;;;;;;27.00;25.00;;;;;11.24;74.79;100591.22;5045455;28;49867;-63
2021/12/24 08:51:39;;;;;;;;;71.75;56.25;;;;;11.28;75.01;100587.78;5051694;28;49973;-68
2021/12/24 08:54:05;;;;;;;;;65.25;51.00;;;;;11.15;74.83;100570.94;5051845;28;50013;-65
2021/12/24 08:56:31;;;;;;;;;11.75;11.00;;;;;10.42;74.98;100470.88;5061111;28;49430;-66
2021/12/24 08:58:57;;;;;;;;;14.00;12.25;;;;;10.52;74.98;100464.94;5050202;28;51349;-72
2021/12/24 09:01:22;;;;;;;;;11.75;8.75;;;;;11.01;74.88;100533.97;5050303;28;50031;-72
2021/12/24 09:03:48;;;;;;;;;9.25;9.25;;;;;10.48;74.59;100449.09;5043890;28;49828;-65
2021/12/24 09:06:13;;;;;;;;;11.00;11.00;;;;;10.59;74.07;100481.66;5051611;28;49807;-64
2021/12/24 09:08:42;;;;;;;;;11.50;10.00;;;;;11.17;74.53;100561.34;5051234;28;50461;-64
2021/12/24 09:11:08;;;;;;;;;11.00;11.00;;;;;10.75;74.09;100483.66;5040276;28;49876;-63
2021/12/24 09:13:34;;;;;;;;;10.25;10.25;;;;;11.23;74.21;100550.94;5051463;28;49901;-73
2021/12/24 09:15:59;;;;;;;;;17.75;10.75;;;;;10.42;74.70;100409.63;5051641;28;50036;-74
2021/12/24 09:18:25;;;;;;;;;14.50;10.00;;;;;11.62;74.22;100597.03;5049912;28;51330;-67
2021/12/24 09:20:51;;;;;;;;;11.25;10.25;;;;;11.34;74.09;100553.72;5051173;28;49911;-71
2021/12/24 09:23:18;;;;;;;;;12.75;11.50;;;;;10.76;74.25;100463.53;5043136;28;49989;-69
2021/12/24 09:25:43;;;;;;;;;15.00;12.75;;;;;11.51;74.38;100578.50;5043677;28;49914;-72
2021/12/24 09:28:09;;;;;;;;;11.75;10.75;;;;;11.64;74.29;100604.09;5047688;28;51653;-68
2021/12/24 09:30:35;;;;;;;;;16.25;15.25;;;;;11.75;74.06;100607.75;5043795;28;49882;-64
2021/12/24 09:33:02;;;;;;;;;12.00;10.25;;;;;10.34;73.79;100371.91;5049204;28;49951;-64
2021/12/24 09:35:27;;;;;;;;;11.50;11.00;;;;;10.95;73.99;100497.09;5039687;28;50075;-65
2021/12/24 09:37:54;;;;;;;;;10.00;8.25;;;;;11.69;73.98;100599.78;5048472;28;50286;-67
2021/12/24 09:40:20;;;;;;;;;10.00;9.25;;;;;10.82;73.86;100468.91;5049367;28;49853;-67
2021/12/24 09:42:46;;;;;;;;;13.00;11.50;;;;;11.39;73.56;100526.66;5047754;28;50008;-64
2021/12/24 09:45:13;;;;;;;;;10.75;10.75;;;;;11.38;72.97;100516.09;5051820;28;49693;-68
2021/12/24 09:47:39;;;;;;;;;8.50;8.50;;;;;10.92;73.44;100454.16;5053132;28;50067;-64
2021/12/24 09:50:07;;;;;;;;;10.50;10.00;;;;;10.93;73.54;100458.53;5049683;28;49955;-66
2021/12/24 09:52:33;;;;;;;;;6.75;6.75;;;;;11.90;73.21;100599.22;5050518;28;49704;-73
2021/12/24 09:55:10;;;;;;;;;8.75;8.75;;;;;11.43;73.17;100515.31;5038831;28;49626;-65
2021/12/24 09:57:36;;;;;;;;;10.00;10.00;;;;;11.12;73.22;100447.44;5039128;28;49798;-68
2021/12/24 10:00:03;;;;;;;;;10.50;10.50;;;;;10.83;72.99;100373.50;5041082;28;49995;-67
2021/12/24 10:02:42;;;;;;;;;11.75;11.00;;;;;11.02;73.22;100419.28;5041149;28;49834;-75
2021/12/24 10:05:28;;;;;;;;;12.50;11.25;;;;;12.24;73.18;100589.97;5049732;28;50055;-73
2021/12/24 10:08:10;;;;;;;;;10.50;9.25;;;;;12.27;72.80;100594.41;5048789;28;50782;-72
2021/12/24 10:10:41;;;;;;;;;10.75;10.75;;;;;11.44;72.58;100451.34;5041105;28;49734;-73
2021/12/24 10:13:27;;;;;;;;;14.50;12.50;;;;;12.35;72.68;100579.53;5038884;28;49786;-73
2021/12/24 10:15:55;;;;;;;;;15.00;14.25;;;;;11.83;72.23;100493.91;5050510;28;49808;-73
2021/12/24 10:18:33;;;;;;;;;16.25;14.25;;;;;12.13;72.33;100544.22;5047145;28;49958;-71
2021/12/24 10:21:20;;;;;;;;;10.75;10.75;;;;;11.69;72.73;100483.22;5047804;28;49972;-71
2021/12/24 10:23:51;;;;;;;;;12.00;11.50;;;;;11.74;72.41;100489.38;5050455;28;49979;-73
2021/12/24 10:26:28;;;;;;;;;14.00;12.50;;;;;11.34;72.51;100417.94;5052396;28;50158;-72
2021/12/24 10:29:01;;;;;;;;;12.75;12.75;;;;;11.38;72.39;100435.50;5050369;28;50083;-70
2021/12/24 10:31:31;;;;;;;;;12.25;9.25;;;;;11.87;72.69;100483.44;5050224;28;49858;-72
2021/12/24 10:34:15;;;;;;;;;15.00;12.75;;;;;12.32;72.38;100561.09;5050208;28;49978;-72
2021/12/24 10:36:58;;;;;;;;;13.25;12.25;;;;;12.08;72.61;100526.66;5048969;28;49700;-73
2021/12/24 10:39:26;;;;;;;;;12.50;10.00;;;;;11.51;72.53;100431.28;5035291;28;50708;-70
2021/12/24 10:41:55;;;;;;;;;14.75;14.75;;;;;11.00;72.56;100327.34;5048118;28;49838;-74
2021/12/24 10:44:31;;;;;;;;;21.50;20.25;;;;;12.42;72.15;100541.91;5050137;28;49689;-74
2021/12/24 10:47:12;;;;;;;;;19.25;18.00;;;;;12.46;71.92;100530.53;5050206;28;49866;-71
2021/12/24 10:54:56;;;;;;;;;17.25;14.75;;;;;12.64;71.68;100523.66;5031133;28;50457;-71
2021/12/24 10:57:24;;;;;;;;;11.75;11.75;;;;;11.09;71.35;100264.38;5030341;28;49911;-70
2021/12/24 10:59:54;;;;;;;;;8.50;8.00;;;;;12.14;72.27;100410.91;5031653;28;49680;-73
2021/12/24 11:02:20;;;;;;;;;12.00;11.00;;;;;12.15;71.54;100394.25;5028690;28;50029;-75
2021/12/24 11:04:46;;;;;;;;;13.75;11.25;;;;;11.93;70.81;100378.28;5032010;28;49824;-72
2021/12/24 11:07:40;;;;;;;;;11.00;11.00;;;;;13.03;70.64;100516.09;5033352;28;49772;-75
2021/12/24 11:10:15;;;;;;;;;9.25;9.00;;;;;12.11;70.91;100368.78;5029363;28;50485;-72
2021/12/24 11:12:53;;;;;;;;;12.00;11.25;;;;;12.36;70.81;100373.38;5029203;28;49783;-76
2021/12/24 11:15:53;;;;;;;;;12.00;10.25;;;;;11.59;70.52;100232.47;5033583;28;49809;-74
2021/12/24 11:18:27;;;;;;;;;13.75;11.75;;;;;12.16;70.71;100322.31;5032682;28;50051;-72
2021/12/24 11:21:00;;;;;;;;;10.25;10.25;;;;;12.48;70.76;100362.94;5030885;28;50758;-72
2021/12/24 11:23:28;;;;;;;;;14.25;13.25;;;;;12.50;70.30;100362.94;5031279;28;50269;-83
2021/12/24 11:25:57;;;;;;;;;11.00;10.00;;;;;12.03;70.31;100282.78;5032559;28;49830;-70
2021/12/24 11:28:24;;;;;;;;;12.25;9.50;;;;;11.83;70.15;100254.56;5033093;28;49763;-70
2021/12/24 11:30:59;;;;;;;;;12.75;10.00;;;;;13.27;70.50;100467.06;5032749;28;49952;-72
2021/12/24 11:33:29;;;;;;;;;15.25;15.25;;;;;12.57;70.35;100370.03;5031729;28;50026;-71
2021/12/24 11:35:57;;;;;;;;;12.50;12.50;;;;;13.10;69.66;100428.25;5030107;28;49816;-74
2021/12/24 11:38:25;;;;;;;;;12.25;12.25;;;;;12.68;69.94;100356.91;5030244;28;49753;-74
2021/12/24 11:40:53;;;;;;;;;10.50;9.75;;;;;13.15;70.04;100458.19;5031402;28;50946;-72
2021/12/24 11:43:20;;;;;;;;;14.50;12.75;;;;;12.77;69.25;100363.13;5034524;28;50133;-74
2021/12/24 11:45:47;;;;;;;;;12.25;11.00;;;;;12.41;69.58;100302.34;5036644;28;49850;-73
2021/12/24 11:48:12;;;;;;;;;14.00;14.00;;;;;12.29;69.71;100322.44;5035264;28;50032;-75
2021/12/24 11:50:38;;;;;;;;;16.25;15.25;;;;;12.31;70.18;100322.44;5052332;28;50694;-76
2021/12/24 11:53:10;;;;;;;;;14.50;13.00;;;;;11.97;69.81;100248.56;5066942;28;49648;-72
2021/12/24 11:55:39;;;;;;;;;14.75;13.00;;;;;12.81;69.87;100395.59;5044632;28;49777;-76
2021/12/24 11:58:08;;;;;;;;;9.25;9.25;;;;;13.39;69.97;100467.97;5064486;28;49634;-72
2021/12/24 12:00:40;;;;;;;;;16.00;13.75;;;;;13.40;69.24;100466.22;5048161;28;50138;-75
2021/12/24 12:03:08;;;;;;;;;13.00;13.00;;;;;13.37;70.09;100482.03;5050868;28;49793;-73
2021/12/24 12:05:41;;;;;;;;;16.50;15.50;;;;;13.35;69.53;100484.69;5051261;28;50158;-72
2021/12/24 12:08:33;;;;;;;;;14.25;13.25;;;;;13.21;69.77;100467.88;5052607;28;49889;-74
2021/12/24 12:11:05;;;;;;;;;15.25;14.00;;;;;13.06;69.87;100437.03;5050211;28;49786;-81
2021/12/24 12:13:55;;;;;;;;;14.25;14.25;;;;;13.28;69.80;100476.72;5052423;28;49764;-71
2021/12/24 12:16:48;;;;;;;;;14.50;13.25;;;;;12.72;70.03;100387.66;5052458;28;49853;-84
2021/12/24 12:19:42;;;;;;;;;16.50;13.50;;;;;13.20;70.66;100463.50;5046761;28;49757;-80
2021/12/24 12:24:58;;;;;;;;;12.00;12.00;;;;;12.11;70.44;100292.50;5052494;28;49997;-79
2021/12/24 12:27:30;;;;;;;;;23.25;20.25;;;;;13.21;69.97;100464.38;5052376;28;49832;-74
2021/12/24 12:29:55;;;;;;;;;18.00;17.00;;;;;11.49;69.84;100164.91;5051210;28;50148;-79
2021/12/24 12:32:28;;;;;;;;;19.50;14.75;;;;;13.27;69.94;100467.94;5052242;28;49701;-81
2021/12/24 12:34:59;;;;;;;;;19.50;17.00;;;;;13.32;70.23;100463.56;5052327;28;49697;-76
2021/12/24 12:37:44;;;;;;;;;14.50;14.50;;;;;12.78;70.09;100366.63;5052211;28;49887;-70
2021/12/24 12:40:12;;;;;;;;;17.00;16.50;;;;;13.37;69.65;100448.66;5052228;28;49605;-79
2021/12/24 12:45:19;;;;;;;;;16.25;15.00;;;;;13.46;69.11;100429.34;5051712;28;49668;-64
2021/12/24 12:48:06;;;;;;;;;13.50;13.50;;;;;13.42;69.54;100411.78;5052074;28;49724;-70
2021/12/24 12:50:33;;;;;;;;;12.50;12.50;;;;;13.63;69.51;100427.66;5051930;28;50041;-69
2021/12/24 12:53:35;;;;;;;;;16.25;14.00;;;;;13.69;69.03;100435.56;5051841;28;50506;-70
2021/12/24 12:56:15;;;;;;;;;16.25;15.50;;;;;13.76;68.80;100439.13;5051495;28;49878;-74
2021/12/24 12:58:43;;;;;;;;;13.75;13.75;;;;;13.79;68.67;100439.13;5051872;28;49974;-65
2021/12/24 13:01:11;;;;;;;;;13.00;13.00;;;;;13.86;68.45;100430.34;5051832;28;49773;-71
2021/12/24 13:04:00;;;;;;;;;17.50;16.00;;;;;13.81;68.51;100418.91;5051533;28;49835;-66
2021/12/24 13:06:47;;;;;;;;;12.50;12.00;;;;;13.91;68.16;100425.97;5045837;28;49892;-69